PHENX42 YHID-YMAE
Flight info
| Callsign | PHENX42 |
|---|---|
| Flight time | N/A |
| Altitude | 2000 |
| Route | DCT |
| Aircraft | EC35/L-S/L |
Departure
| Time | 2026-04-19 08:27 |
|---|---|
| Airport | Horn Island Airport (YHID) |
Arrival
| Time | N/A |
|---|---|
| Airport | Murray Island Airport (YMAE) |
| Time | Latitude | Longitude | Altitude | Speed | Heading |
|---|---|---|---|---|---|
| 2026-04-19 08:24 | -10.58869 | 142.29401 | 47 ft | 0 kts | 221° |
| 2026-04-19 08:26 | -10.58810 | 142.29385 | 59 ft | 18 kts | 333° |
| 2026-04-19 08:27 | -10.58591 | 142.29330 | 216 ft | 52 kts | 329° |
| 2026-04-19 08:27 | -10.58172 | 142.29147 | 469 ft | 78 kts | 332° |
| 2026-04-19 08:27 | -10.57710 | 142.29224 | 855 ft | 60 kts | 49° |
| 2026-04-19 08:27 | -10.57559 | 142.29542 | 1240 ft | 49 kts | 94° |
| 2026-04-19 08:28 | -10.57540 | 142.29849 | 1633 ft | 47 kts | 80° |
| 2026-04-19 08:28 | -10.57439 | 142.30154 | 1992 ft | 45 kts | 85° |
| 2026-04-19 08:28 | -10.57378 | 142.30405 | 2415 ft | 34 kts | 86° |
| 2026-04-19 08:28 | -10.57337 | 142.30602 | 2634 ft | 28 kts | 86° |
| 2026-04-19 08:29 | -10.57318 | 142.30760 | 2843 ft | 14 kts | 102° |
| 2026-04-19 08:29 | -10.57361 | 142.30977 | 2836 ft | 51 kts | 100° |
| 2026-04-19 08:29 | -10.57460 | 142.31339 | 2985 ft | 41 kts | 98° |
| 2026-04-19 08:29 | -10.57497 | 142.31656 | 2990 ft | 71 kts | 88° |
| 2026-04-19 08:30 | -10.57375 | 142.32306 | 2555 ft | 117 kts | 73° |
| 2026-04-19 08:30 | -10.56977 | 142.33077 | 2298 ft | 105 kts | 55° |
| 2026-04-19 08:30 | -10.56597 | 142.33563 | 2381 ft | 102 kts | 58° |
| 2026-04-19 08:30 | -10.56202 | 142.34109 | 2539 ft | 85 kts | 60° |
| 2026-04-19 08:31 | -10.55887 | 142.34605 | 2624 ft | 82 kts | 64° |
| 2026-04-19 08:31 | -10.55607 | 142.35107 | 2664 ft | 80 kts | 66° |
| 2026-04-19 08:31 | -10.55357 | 142.35620 | 2714 ft | 80 kts | 69° |
| 2026-04-19 08:31 | -10.55130 | 142.36130 | 2759 ft | 76 kts | 70° |
| 2026-04-19 08:32 | -10.54942 | 142.36623 | 2888 ft | 84 kts | 79° |
| 2026-04-19 08:32 | -10.54756 | 142.37334 | 2826 ft | 114 kts | 79° |
| 2026-04-19 08:32 | -10.54516 | 142.38139 | 2827 ft | 122 kts | 75° |
| 2026-04-19 08:32 | -10.54228 | 142.38960 | 2838 ft | 124 kts | 73° |
| 2026-04-19 08:33 | -10.53915 | 142.39787 | 2829 ft | 126 kts | 72° |
| 2026-04-19 08:33 | -10.53596 | 142.40604 | 2828 ft | 125 kts | 71° |
| 2026-04-19 08:33 | -10.53272 | 142.41434 | 2833 ft | 126 kts | 72° |
| 2026-04-19 08:33 | -10.52950 | 142.42271 | 2832 ft | 125 kts | 72° |
| 2026-04-19 08:34 | -10.52637 | 142.43094 | 2834 ft | 125 kts | 73° |
| 2026-04-19 08:34 | -10.52327 | 142.43921 | 2841 ft | 126 kts | 72° |
| 2026-04-19 08:34 | -10.52015 | 142.44757 | 2841 ft | 127 kts | 72° |
| 2026-04-19 08:34 | -10.51701 | 142.45595 | 2842 ft | 126 kts | 72° |
| 2026-04-19 08:35 | -10.51386 | 142.46423 | 2839 ft | 124 kts | 72° |
| 2026-04-19 08:35 | -10.51080 | 142.47238 | 2849 ft | 122 kts | 73° |
| 2026-04-19 08:35 | -10.50777 | 142.48062 | 2841 ft | 125 kts | 73° |
| 2026-04-19 08:35 | -10.50476 | 142.48883 | 2845 ft | 125 kts | 73° |
| 2026-04-19 08:36 | -10.50167 | 142.49716 | 2844 ft | 125 kts | 72° |
| 2026-04-19 08:36 | -10.49857 | 142.50548 | 2842 ft | 126 kts | 72° |
| 2026-04-19 08:36 | -10.49546 | 142.51378 | 2840 ft | 126 kts | 72° |
| 2026-04-19 08:36 | -10.49233 | 142.52212 | 2850 ft | 125 kts | 72° |
| 2026-04-19 08:37 | -10.48919 | 142.53055 | 2843 ft | 126 kts | 72° |
| 2026-04-19 08:37 | -10.48611 | 142.53885 | 2839 ft | 128 kts | 72° |
| 2026-04-19 08:37 | -10.48290 | 142.54692 | 3035 ft | 101 kts | 54° |
| 2026-04-19 08:37 | -10.48008 | 142.54718 | 2821 ft | 99 kts | 290° |
| 2026-04-19 08:38 | -10.47937 | 142.54068 | 2866 ft | 106 kts | 245° |
| 2026-04-19 08:38 | -10.48500 | 142.53792 | 3138 ft | 90 kts | 150° |
| 2026-04-19 08:38 | -10.48816 | 142.54305 | 3419 ft | 89 kts | 97° |
| 2026-04-19 08:38 | -10.48728 | 142.54970 | 3387 ft | 108 kts | 75° |
| 2026-04-19 08:39 | -10.48394 | 142.55699 | 3265 ft | 119 kts | 64° |
| 2026-04-19 08:39 | -10.47960 | 142.56442 | 3137 ft | 124 kts | 62° |
| 2026-04-19 08:39 | -10.47515 | 142.57201 | 3001 ft | 124 kts | 63° |
| 2026-04-19 08:39 | -10.47102 | 142.57968 | 2872 ft | 123 kts | 66° |
| 2026-04-19 08:40 | -10.46736 | 142.58743 | 2860 ft | 119 kts | 70° |
| 2026-04-19 08:40 | -10.46420 | 142.59521 | 2842 ft | 120 kts | 72° |
| 2026-04-19 08:40 | -10.46120 | 142.60324 | 2838 ft | 120 kts | 73° |
| 2026-04-19 08:40 | -10.45833 | 142.61116 | 2840 ft | 120 kts | 73° |
| 2026-04-19 08:41 | -10.45548 | 142.61902 | 2840 ft | 118 kts | 73° |
| 2026-04-19 08:41 | -10.45261 | 142.62691 | 2840 ft | 118 kts | 73° |
| 2026-04-19 08:41 | -10.44978 | 142.63469 | 2840 ft | 118 kts | 73° |
| 2026-04-19 08:41 | -10.44688 | 142.64262 | 2842 ft | 119 kts | 73° |
| 2026-04-19 08:42 | -10.44398 | 142.65053 | 2839 ft | 119 kts | 73° |
| 2026-04-19 08:42 | -10.44111 | 142.65848 | 2861 ft | 123 kts | 74° |
| 2026-04-19 08:42 | -10.43817 | 142.66682 | 2845 ft | 126 kts | 73° |
| 2026-04-19 08:42 | -10.43513 | 142.67526 | 2846 ft | 127 kts | 73° |
| 2026-04-19 08:43 | -10.43206 | 142.68359 | 2844 ft | 127 kts | 73° |
| 2026-04-19 08:43 | -10.42892 | 142.69202 | 2844 ft | 127 kts | 72° |
| 2026-04-19 08:43 | -10.42578 | 142.70041 | 2844 ft | 127 kts | 73° |
| 2026-04-19 08:43 | -10.42264 | 142.70879 | 2844 ft | 126 kts | 73° |
| 2026-04-19 08:44 | -10.41952 | 142.71710 | 2843 ft | 125 kts | 73° |
| 2026-04-19 08:44 | -10.41643 | 142.72539 | 2844 ft | 126 kts | 73° |
| 2026-04-19 08:44 | -10.41331 | 142.73379 | 2844 ft | 127 kts | 73° |
| 2026-04-19 08:44 | -10.41020 | 142.74213 | 2844 ft | 127 kts | 73° |
| 2026-04-19 08:45 | -10.40706 | 142.75056 | 2843 ft | 128 kts | 73° |
| 2026-04-19 08:45 | -10.40375 | 142.75903 | 2840 ft | 130 kts | 68° |
| 2026-04-19 08:45 | -10.39761 | 142.76601 | 2849 ft | 134 kts | 49° |
| 2026-04-19 08:45 | -10.39057 | 142.77232 | 2837 ft | 135 kts | 47° |
| 2026-04-19 08:46 | -10.38331 | 142.77856 | 2834 ft | 135 kts | 46° |
| 2026-04-19 08:46 | -10.37610 | 142.78477 | 2830 ft | 136 kts | 46° |
| 2026-04-19 08:46 | -10.36871 | 142.79125 | 2708 ft | 142 kts | 46° |
| 2026-04-19 08:46 | -10.36116 | 142.79778 | 2593 ft | 144 kts | 46° |
| 2026-04-19 08:47 | -10.35346 | 142.80441 | 2474 ft | 144 kts | 46° |
| 2026-04-19 08:47 | -10.34583 | 142.81099 | 2358 ft | 145 kts | 46° |
| 2026-04-19 08:47 | -10.33806 | 142.81776 | 2236 ft | 146 kts | 46° |
| 2026-04-19 08:47 | -10.33030 | 142.82455 | 2122 ft | 146 kts | 47° |
| 2026-04-19 08:48 | -10.32257 | 142.83134 | 2000 ft | 147 kts | 47° |
| 2026-04-19 08:48 | -10.31482 | 142.83812 | 1882 ft | 146 kts | 47° |
| 2026-04-19 08:48 | -10.30708 | 142.84494 | 1762 ft | 147 kts | 46° |
| 2026-04-19 08:48 | -10.29936 | 142.85172 | 1639 ft | 145 kts | 46° |
| 2026-04-19 08:49 | -10.29181 | 142.85834 | 1524 ft | 144 kts | 47° |
| 2026-04-19 08:49 | -10.28422 | 142.86504 | 1401 ft | 143 kts | 46° |
| 2026-04-19 08:49 | -10.27677 | 142.87161 | 1357 ft | 139 kts | 46° |
| 2026-04-19 08:49 | -10.26959 | 142.87805 | 1359 ft | 137 kts | 48° |
| 2026-04-19 08:50 | -10.26232 | 142.88464 | 1348 ft | 139 kts | 48° |
| 2026-04-19 08:50 | -10.25504 | 142.89111 | 1350 ft | 138 kts | 47° |
| 2026-04-19 08:50 | -10.24782 | 142.89755 | 1347 ft | 138 kts | 47° |
| 2026-04-19 08:50 | -10.24062 | 142.90393 | 1351 ft | 138 kts | 47° |
| 2026-04-19 08:51 | -10.23328 | 142.91042 | 1347 ft | 139 kts | 46° |
| 2026-04-19 08:51 | -10.22601 | 142.91678 | 1348 ft | 138 kts | 47° |
| 2026-04-19 08:51 | -10.21869 | 142.92322 | 1349 ft | 138 kts | 48° |
| 2026-04-19 08:51 | -10.21143 | 142.92963 | 1346 ft | 138 kts | 47° |
| 2026-04-19 08:52 | -10.20418 | 142.93600 | 1348 ft | 137 kts | 47° |
| 2026-04-19 08:52 | -10.19698 | 142.94234 | 1345 ft | 137 kts | 47° |
| 2026-04-19 08:52 | -10.18974 | 142.94871 | 1346 ft | 137 kts | 47° |
| 2026-04-19 08:52 | -10.18249 | 142.95508 | 1344 ft | 137 kts | 47° |
| 2026-04-19 08:53 | -10.17535 | 142.96137 | 1344 ft | 136 kts | 47° |
| 2026-04-19 08:53 | -10.16804 | 142.96783 | 1346 ft | 138 kts | 46° |
| 2026-04-19 08:53 | -10.16083 | 142.97415 | 1348 ft | 137 kts | 46° |
| 2026-04-19 08:53 | -10.15351 | 142.98061 | 1348 ft | 138 kts | 47° |
| 2026-04-19 08:54 | -10.14628 | 142.98697 | 1348 ft | 139 kts | 47° |
| 2026-04-19 08:54 | -10.13891 | 142.99342 | 1343 ft | 137 kts | 47° |
| 2026-04-19 08:54 | -10.13171 | 142.99971 | 1351 ft | 136 kts | 48° |
| 2026-04-19 08:54 | -10.12458 | 143.00601 | 1346 ft | 137 kts | 47° |
| 2026-04-19 08:55 | -10.11735 | 143.01237 | 1355 ft | 137 kts | 48° |
| 2026-04-19 08:55 | -10.11008 | 143.01881 | 1351 ft | 138 kts | 47° |
| 2026-04-19 08:55 | -10.10271 | 143.02530 | 1342 ft | 140 kts | 47° |
| 2026-04-19 08:55 | -10.09528 | 143.03175 | 1231 ft | 143 kts | 45° |
| 2026-04-19 08:56 | -10.08763 | 143.03809 | 1109 ft | 140 kts | 44° |
| 2026-04-19 08:56 | -10.08002 | 143.04443 | 982 ft | 140 kts | 44° |
| 2026-04-19 08:56 | -10.07208 | 143.05000 | 885 ft | 139 kts | 32° |
| 2026-04-19 08:56 | -10.06279 | 143.05449 | 654 ft | 146 kts | 29° |
| 2026-04-19 08:57 | -10.05450 | 143.05778 | 331 ft | 111 kts | 28° |
| 2026-04-19 08:57 | -10.04944 | 143.06023 | 145 ft | 50 kts | 76° |
| 2026-04-19 08:57 | -10.04929 | 143.06345 | 120 ft | 44 kts | 89° |
| 2026-04-19 08:57 | -10.04948 | 143.06645 | 87 ft | 35 kts | 89° |
| 2026-04-19 08:58 | -10.05011 | 143.06799 | 60 ft | 24 kts | 234° |
| 2026-04-19 08:58 | -10.04986 | 143.06752 | 17 ft | 2 kts | 96° |